Observation data for Ralls on 02/15/2017      Previous  Date  Next       Current Mesonet Observations  Soil Data  Daily Summary Page  Observations in Plain Language
KRLS 150600Z 32010G15KT 03/M02 A3017 RMK A01 T00271015  RH  074%=      5-min Rain = 0
KRLS 150605Z 31010KT 03/M02 A3017 RMK A01 T00261016  RH  075%=      5-min Rain = 0
KRLS 150610Z 32010KT 03/M02 A3017 RMK A01 T00261016  RH  075%=      5-min Rain = 0
KRLS 150615Z 32009KT 03/M02 A3018 RMK A01 T00251017  RH  075%=      5-min Rain = 0
KRLS 150620Z 32010KT 02/M02 A3018 RMK A01 T00241017  RH  075%=      5-min Rain = 0
KRLS 150625Z 32010KT 02/M02 A3018 RMK A01 T00241017  RH  075%=      5-min Rain = 0
KRLS 150630Z 32009KT 02/M02 A3018 RMK A01 T00231018  RH  075%=      5-min Rain = 0
KRLS 150635Z 32008KT 02/M02 A3018 RMK A01 T00221019  RH  075%=      5-min Rain = 0
KRLS 150640Z 32008KT 02/M02 A3018 RMK A01 T00201019  RH  076%=      5-min Rain = 0
KRLS 150645Z 32008KT 02/M02 A3018 RMK A01 T00201020  RH  076%=      5-min Rain = 0
KRLS 150650Z 32009KT 02/M02 A3018 RMK A01 T00191020  RH  076%=      5-min Rain = 0
KRLS 150655Z 32009KT 02/M02 A3018 RMK A01 T00201021  RH  076%=      5-min Rain = 0
KRLS 150700Z 32009KT 02/M02 A3018 RMK A01 T00201021  RH  075%=      5-min Rain = 0
KRLS 150705Z 32009KT 02/M02 A3018 RMK A01 T00201022  RH  075%=      5-min Rain = 0
KRLS 150710Z 33010KT 02/M02 A3018 RMK A01 T00211022  RH  074%=      5-min Rain = 0
KRLS 150715Z 32009KT 02/M02 A3018 RMK A01 T00191023  RH  075%=      5-min Rain = 0
KRLS 150720Z 33009KT 02/M02 A3018 RMK A01 T00201023  RH  074%=      5-min Rain = 0
KRLS 150725Z 32009KT 02/M02 A3018 RMK A01 T00171024  RH  075%=      5-min Rain = 0
KRLS 150730Z 32008KT 02/M02 A3018 RMK A01 T00171024  RH  075%=      5-min Rain = 0
KRLS 150735Z 32008KT 02/M02 A3018 RMK A01 T00161024  RH  075%=      5-min Rain = 0
KRLS 150740Z 32008KT 02/M02 A3019 RMK A01 T00151024  RH  076%=      5-min Rain = 0
KRLS 150745Z 32009KT 01/M02 A3019 RMK A01 T00141024  RH  076%=      5-min Rain = 0
KRLS 150750Z 32009KT 01/M03 A3019 RMK A01 T00141025  RH  076%=      5-min Rain = 0
KRLS 150755Z 32009KT 01/M03 A3019 RMK A01 T00131025  RH  077%=      5-min Rain = 0
KRLS 150800Z 32009KT 01/M03 A3019 RMK A01 T00131025  RH  077%=      5-min Rain = 0
KRLS 150805Z 32009KT 01/M03 A3019 RMK A01 T00121025  RH  077%=      5-min Rain = 0
KRLS 150810Z 32010KT 01/M03 A3019 RMK A01 T00131025  RH  077%=      5-min Rain = 0
KRLS 150815Z 32009KT 01/M03 A3019 RMK A01 T00121026  RH  077%=      5-min Rain = 0
KRLS 150820Z 32009KT 01/M03 A3019 RMK A01 T00111026  RH  077%=      5-min Rain = 0
KRLS 150825Z 32010KT 01/M03 A3019 RMK A01 T00111026  RH  077%=      5-min Rain = 0
KRLS 150830Z 33009KT 01/M03 A3019 RMK A01 T00111025  RH  078%=      5-min Rain = 0
KRLS 150835Z 33009KT 01/M03 A3019 RMK A01 T00101026  RH  078%=      5-min Rain = 0
KRLS 150840Z 33009KT 01/M03 A3019 RMK A01 T00091026  RH  078%=      5-min Rain = 0
KRLS 150845Z 33009KT 01/M03 A3018 RMK A01 T00101026  RH  078%=      5-min Rain = 0
KRLS 150850Z 32009KT 01/M03 A3018 RMK A01 T00091026  RH  078%=      5-min Rain = 0
KRLS 150855Z 33009KT 01/M03 A3018 RMK A01 T00091026  RH  078%=      5-min Rain = 0
KRLS 150900Z 32009KT 01/M03 A3018 RMK A01 T00101026  RH  078%=      5-min Rain = 0
KRLS 150905Z 33009KT 01/M03 A3018 RMK A01 T00101027  RH  077%=      5-min Rain = 0
KRLS 150910Z 33009KT 01/M03 A3018 RMK A01 T00091027  RH  078%=      5-min Rain = 0
KRLS 150915Z 33010KT 01/M03 A3018 RMK A01 T00101026  RH  077%=      5-min Rain = 0
KRLS 150920Z 33009KT 01/M03 A3018 RMK A01 T00101027  RH  078%=      5-min Rain = 0
KRLS 150925Z 33010KT 01/M03 A3018 RMK A01 T00111027  RH  077%=      5-min Rain = 0
KRLS 150930Z 34011KT 01/M03 A3018 RMK A01 T00121027  RH  076%=      5-min Rain = 0
KRLS 150935Z 34011KT 01/M03 A3018 RMK A01 T00121027  RH  076%=      5-min Rain = 0
KRLS 150940Z 34011KT 01/M03 A3018 RMK A01 T00121027  RH  076%=      5-min Rain = 0
KRLS 150945Z 34011KT 01/M03 A3018 RMK A01 T00121027  RH  076%=      5-min Rain = 0
KRLS 150950Z 34010KT 01/M03 A3018 RMK A01 T00111027  RH  077%=      5-min Rain = 0
KRLS 150955Z 34009KT 01/M03 A3018 RMK A01 T00111027  RH  077%=      5-min Rain = 0
KRLS 151000Z 34009KT 01/M03 A3018 RMK A01 T00111028  RH  076%=      5-min Rain = 0
KRLS 151005Z 34010KT 01/M03 A3018 RMK A01 T00121028  RH  076%=      5-min Rain = 0
KRLS 151010Z 34009KT 01/M03 A3018 RMK A01 T00111028  RH  076%=      5-min Rain = 0
KRLS 151015Z 34009KT 01/M03 A3018 RMK A01 T00111028  RH  076%=      5-min Rain = 0
KRLS 151020Z 34009KT 01/M03 A3018 RMK A01 T00111028  RH  076%=      5-min Rain = 0
KRLS 151025Z 34009KT 01/M03 A3018 RMK A01 T00111028  RH  076%=      5-min Rain = 0
KRLS 151030Z 34009KT 01/M03 A3018 RMK A01 T00101028  RH  077%=      5-min Rain = 0
KRLS 151035Z 34009KT 01/M03 A3018 RMK A01 T00091028  RH  077%=      5-min Rain = 0
KRLS 151040Z 34009KT 01/M03 A3018 RMK A01 T00101028  RH  077%=      5-min Rain = 0
KRLS 151045Z 34009KT 01/M03 A3018 RMK A01 T00091027  RH  078%=      5-min Rain = 0
KRLS 151050Z 34009KT 01/M03 A3018 RMK A01 T00081027  RH  078%=      5-min Rain = 0
KRLS 151055Z 34009KT 01/M03 A3018 RMK A01 T00081028  RH  078%=      5-min Rain = 0
KRLS 151100Z 34010KT 01/M03 A3018 RMK A01 T00081028  RH  078%=      5-min Rain = 0
KRLS 151105Z 34010KT 01/M03 A3018 RMK A01 T00081028  RH  078%=      5-min Rain = 0
KRLS 151110Z 34010KT 01/M03 A3018 RMK A01 T00081028  RH  077%=      5-min Rain = 0
KRLS 151115Z 33010KT 01/M03 A3018 RMK A01 T00081029  RH  077%=      5-min Rain = 0
KRLS 151120Z 33010KT 01/M03 A3018 RMK A01 T00091029  RH  077%=      5-min Rain = 0
KRLS 151125Z 33009KT 01/M03 A3019 RMK A01 T00081029  RH  077%=      5-min Rain = 0
KRLS 151130Z 33009KT 01/M03 A3019 RMK A01 T00091029  RH  077%=      5-min Rain = 0
KRLS 151135Z 33009KT 01/M03 A3019 RMK A01 T00091029  RH  077%=      5-min Rain = 0
KRLS 151140Z 33008KT 01/M03 A3019 RMK A01 T00081030  RH  077%=      5-min Rain = 0
KRLS 151145Z 33007KT 01/M03 A3019 RMK A01 T00061030  RH  078%=      5-min Rain = 0
KRLS 151150Z 33008KT 01/M03 A302 RMK A01 T00061029  RH  078%=      5-min Rain = 0
KRLS 151155Z 33008KT 01/M03 A302 RMK A01 T00051030  RH  078%=      5-min Rain = 0
KRLS 151200Z 33007KT 00/M03 A302 RMK A01 T00041030  RH  079%=      5-min Rain = 0
KRLS 151205Z 33008KT 00/M03 A302 RMK A01 T00031030  RH  079%=      5-min Rain = 0
KRLS 151210Z 33008KT 00/M03 A302 RMK A01 T00041030  RH  079%=      5-min Rain = 0
KRLS 151215Z 33007KT 00/M03 A302 RMK A01 T00021031  RH  079%=      5-min Rain = 0
KRLS 151220Z 33007KT 00/M03 A302 RMK A01 T00021031  RH  079%=      5-min Rain = 0
KRLS 151225Z 32008KT 00/M03 A302 RMK A01 T00021031  RH  080%=      5-min Rain = 0
KRLS 151230Z 32007KT 00/M03 A302 RMK A01 T00021031  RH  079%=      5-min Rain = 0
KRLS 151235Z 32008KT 00/M03 A302 RMK A01 T00031031  RH  079%=      5-min Rain = 0
KRLS 151240Z 32008KT 00/M03 A3021 RMK A01 T00031031  RH  079%=      5-min Rain = 0
KRLS 151245Z 33008KT 00/M03 A3021 RMK A01 T00021032  RH  079%=      5-min Rain = 0
KRLS 151250Z 33009KT 00/M03 A3021 RMK A01 T00021031  RH  079%=      5-min Rain = 0
KRLS 151255Z 33009KT 00/M03 A3021 RMK A01 T00021032  RH  079%=      5-min Rain = 0
KRLS 151300Z 33009KT 00/M03 A3021 RMK A01 T00021032  RH  079%=      5-min Rain = 0
KRLS 151305Z 33009KT 00/M03 A3021 RMK A01 T00021032  RH  079%=      5-min Rain = 0
KRLS 151310Z 33009KT 00/M03 A3022 RMK A01 T00021032  RH  079%=      5-min Rain = 0
KRLS 151315Z 33009KT 00/M03 A3022 RMK A01 T00011032  RH  079%=      5-min Rain = 0
KRLS 151320Z 33008KT 00/03 A3022 RMK A01 T00000-32  RH  080%=      5-min Rain = 0
KRLS 151325Z 33007KT 00/03 A3022 RMK A01 T00-00-32  RH  080%=      5-min Rain = 0
KRLS 151330Z 33008KT M00/M03 A3022 RMK A01 T10021033  RH  081%=      5-min Rain = 0
KRLS 151335Z 33008KT M00/M03 A3023 RMK A01 T10021032  RH  081%=      5-min Rain = 0
KRLS 151340Z 33008KT M00/M03 A3023 RMK A01 T10011032  RH  081%=      5-min Rain = 0
KRLS 151345Z 33008KT M00/M03 A3023 RMK A01 T10021032  RH  081%=      5-min Rain = 0
KRLS 151350Z 33008KT 00/03 A3023 RMK A01 T00-00-31  RH  081%=      5-min Rain = 0
KRLS 151355Z 33008KT 00/M03 A3023 RMK A01 T00011031  RH  080%=      5-min Rain = 0
KRLS 151400Z 33008KT 00/M03 A3024 RMK A01 T00021030  RH  080%=      5-min Rain = 0
KRLS 151405Z 33008KT 00/M03 A3024 RMK A01 T00031030  RH  079%=      5-min Rain = 0
KRLS 151410Z 33008KT 01/M03 A3024 RMK A01 T00051030  RH  079%=      5-min Rain = 0
KRLS 151415Z 33008KT 01/M03 A3024 RMK A01 T00061029  RH  078%=      5-min Rain = 0
KRLS 151420Z 33008KT 01/M03 A3024 RMK A01 T00071029  RH  078%=      5-min Rain = 0
KRLS 151425Z 33009KT 01/M03 A3025 RMK A01 T00091029  RH  077%=      5-min Rain = 0
KRLS 151430Z 33009KT 01/M03 A3025 RMK A01 T00101028  RH  076%=      5-min Rain = 0
KRLS 151435Z 33009KT 01/M03 A3025 RMK A01 T00111028  RH  076%=      5-min Rain = 0
KRLS 151440Z 34009KT 01/M03 A3025 RMK A01 T00131028  RH  075%=      5-min Rain = 0
KRLS 151445Z 34009KT 01/M03 A3025 RMK A01 T00141027  RH  075%=      5-min Rain = 0
KRLS 151450Z 34008KT 02/M03 A3026 RMK A01 T00161026  RH  075%=      5-min Rain = 0
KRLS 151455Z 33009KT 02/M03 A3026 RMK A01 T00171026  RH  074%=      5-min Rain = 0
KRLS 151500Z 33010KT 02/M02 A3026 RMK A01 T00181024  RH  074%=      5-min Rain = 0
KRLS 151505Z 33009KT 02/M03 A3027 RMK A01 T00191025  RH  073%=      5-min Rain = 0
KRLS 151510Z 34008KT 02/M02 A3027 RMK A01 T00231022  RH  073%=      5-min Rain = 0
KRLS 151515Z 34008KT 03/M02 A3027 RMK A01 T00251021  RH  073%=      5-min Rain = 0
KRLS 151520Z 34008KT 03/M02 A3027 RMK A01 T00261021  RH  072%=      5-min Rain = 0
KRLS 151525Z 33009KT 03/M02 A3027 RMK A01 T00281020  RH  071%=      5-min Rain = 0
KRLS 151530Z 34008KT 03/M02 A3027 RMK A01 T00291021  RH  071%=      5-min Rain = 0
KRLS 151535Z 34008KT 03/M02 A3027 RMK A01 T00341017  RH  070%=      5-min Rain = 0
KRLS 151540Z 35008KT 03/M02 A3027 RMK A01 T00341019  RH  069%=      5-min Rain = 0
KRLS 151545Z 35008KT 04/M02 A3027 RMK A01 T00361016  RH  069%=      5-min Rain = 0
KRLS 151550Z 35008KT 04/M02 A3027 RMK A01 T00361018  RH  068%=      5-min Rain = 0
KRLS 151555Z 34007KT 04/M01 A3027 RMK A01 T00411014  RH  068%=      5-min Rain = 0
KRLS 151600Z 34008KT 04/M02 A3027 RMK A01 T00421015  RH  067%=      5-min Rain = 0
KRLS 151605Z 34008KT 04/M01 A3027 RMK A01 T00431014  RH  067%=      5-min Rain = 0
KRLS 151610Z 35008KT 05/M01 A3027 RMK A01 T00451014  RH  066%=      5-min Rain = 0
KRLS 151615Z 35008KT 05/M01 A3027 RMK A01 T00471011  RH  067%=      5-min Rain = 0
KRLS 151620Z 36006KT 05/M01 A3027 RMK A01 T00521011  RH  065%=      5-min Rain = 0
KRLS 151625Z 35008KT 05/M01 A3027 RMK A01 T00541010  RH  064%=      5-min Rain = 0
KRLS 151630Z 36007KT 06/M01 A3027 RMK A01 T00551009  RH  064%=      5-min Rain = 0
KRLS 151635Z 36007KT 06/M01 A3027 RMK A01 T00561011  RH  063%=      5-min Rain = 0
KRLS 151640Z 01007KT 06/M01 A3027 RMK A01 T00571010  RH  062%=      5-min Rain = 0
KRLS 151645Z 00007KT 06/M01 A3027 RMK A01 T00581010  RH  062%=      5-min Rain = 0
KRLS 151650Z 36007KT 06/M01 A3027 RMK A01 T00581011  RH  062%=      5-min Rain = 0
KRLS 151655Z 02006KT 06/M01 A3028 RMK A01 T00591011  RH  061%=      5-min Rain = 0
KRLS 151700Z 03007KT 06/M01 A3027 RMK A01 T00611011  RH  061%=      5-min Rain = 0
KRLS 151705Z 02006KT 06/M01 A3028 RMK A01 T00631010  RH  060%=      5-min Rain = 0
KRLS 151710Z 03006KT 07/M01 A3028 RMK A01 T00661010  RH  059%=      5-min Rain = 0
KRLS 151715Z 02006KT 07/M01 A3028 RMK A01 T00671009  RH  059%=      5-min Rain = 0
KRLS 151720Z 02006KT 07/M01 A3028 RMK A01 T00691012  RH  057%=      5-min Rain = 0
KRLS 151725Z 03006KT 07/M01 A3028 RMK A01 T00701012  RH  057%=      5-min Rain = 0
KRLS 151730Z 02005KT 07/M01 A3027 RMK A01 T00711009  RH  057%=      5-min Rain = 0
KRLS 151735Z 35005KT 07/M01 A3027 RMK A01 T00741008  RH  057%=      5-min Rain = 0
KRLS 151740Z 36005KT 07/M01 A3027 RMK A01 T00721009  RH  057%=      5-min Rain = 0
KRLS 151745Z 36005KT 08/M01 A3027 RMK A01 T00761007  RH  056%=      5-min Rain = 0
KRLS 151750Z 35006KT 08/M01 A3027 RMK A01 T00761011  RH  055%=      5-min Rain = 0
KRLS 151755Z 01007KT 08/M01 A3027 RMK A01 T00801010  RH  053%=      5-min Rain = 0
KRLS 151800Z 01006KT 08/M01 A3027 RMK A01 T00831009  RH  053%=      5-min Rain = 0
KRLS 151805Z 35007KT 08/M03 A3027 RMK A01 T00801025  RH  048%=      5-min Rain = 0
KRLS 151810Z 36005KT 08/M01 A3026 RMK A01 T00821014  RH  051%=      5-min Rain = 0
KRLS 151815Z 35007KT 08/M02 A3026 RMK A01 T00821019  RH  049%=      5-min Rain = 0
KRLS 151820Z 00005KT 08/M02 A3026 RMK A01 T00841019  RH  049%=      5-min Rain = 0
KRLS 151825Z 35006G12KT 09/M02 A3026 RMK A01 T00851020  RH  048%=      5-min Rain = 0
KRLS 151830Z 35007KT 09/M02 A3026 RMK A01 T00871022  RH  047%=      5-min Rain = 0
KRLS 151835Z 35006G16KT 09/M02 A3025 RMK A01 T00861020  RH  048%=      5-min Rain = 0
KRLS 151840Z 35006KT 09/M02 A3025 RMK A01 T00891018  RH  047%=      5-min Rain = 0
KRLS 151845Z 36007G12KT 09/M02 A3025 RMK A01 T00891021  RH  046%=      5-min Rain = 0
KRLS 151850Z 35006KT 09/M02 A3025 RMK A01 T00911016  RH  048%=      5-min Rain = 0
KRLS 151855Z 35007G12KT 09/M02 A3025 RMK A01 T00921022  RH  045%=      5-min Rain = 0
KRLS 151900Z 00008G13KT 09/M02 A3024 RMK A01 T00941019  RH  046%=      5-min Rain = 0
KRLS 151905Z 00007KT 09/M02 A3024 RMK A01 T00931020  RH  046%=      5-min Rain = 0
KRLS 151910Z 00008KT 10/M02 A3024 RMK A01 T00961020  RH  045%=      5-min Rain = 0
KRLS 151915Z 01009KT 09/M02 A3024 RMK A01 T00931021  RH  045%=      5-min Rain = 0
KRLS 151920Z 36008KT 10/M02 A3023 RMK A01 T00981018  RH  045%=      5-min Rain = 0
KRLS 151925Z 00008KT 10/M02 A3023 RMK A01 T00951024  RH  044%=      5-min Rain = 0
KRLS 151930Z 35004G12KT 09/M02 A3023 RMK A01 T00941020  RH  045%=      5-min Rain = 0
KRLS 151935Z 35007KT 10/M01 A3022 RMK A01 T01021014  RH  045%=      5-min Rain = 0
KRLS 151940Z 35008KT 10/M02 A3022 RMK A01 T00991019  RH  044%=      5-min Rain = 0
KRLS 151945Z 34007KT 10/M02 A3022 RMK A01 T00961022  RH  044%=      5-min Rain = 0
KRLS 151950Z 31007KT 10/M02 A3021 RMK A01 T01001017  RH  044%=      5-min Rain = 0
KRLS 151955Z 01005KT 10/M03 A3021 RMK A01 T00981026  RH  042%=      5-min Rain = 0
KRLS 152000Z 34007G13KT 10/M02 A3021 RMK A01 T01021018  RH  044%=      5-min Rain = 0
KRLS 152005Z 30007KT 10/M01 A3021 RMK A01 T01031013  RH  045%=      5-min Rain = 0
KRLS 152010Z 34004KT 10/M02 A302 RMK A01 T01021018  RH  043%=      5-min Rain = 0
KRLS 152015Z 35007KT 11/M02 A302 RMK A01 T01061017  RH  043%=      5-min Rain = 0
KRLS 152020Z 33007G12KT 11/M02 A302 RMK A01 T01061016  RH  043%=      5-min Rain = 0
KRLS 152025Z 33005KT 10/M02 A302 RMK A01 T01041018  RH  043%=      5-min Rain = 0
KRLS 152030Z 36007KT 11/M02 A3019 RMK A01 T01061015  RH  043%=      5-min Rain = 0
KRLS 152035Z 02006KT 11/M02 A3019 RMK A01 T01051015  RH  044%=      5-min Rain = 0
KRLS 152040Z 34007G13KT 11/M02 A3019 RMK A01 T01051017  RH  043%=      5-min Rain = 0
KRLS 152045Z 35005KT 11/M02 A3019 RMK A01 T01051018  RH  043%=      5-min Rain = 0
KRLS 152050Z 35008KT 11/M02 A3019 RMK A01 T01091015  RH  042%=      5-min Rain = 0
KRLS 152055Z 34006KT 11/M02 A3018 RMK A01 T01101015  RH  042%=      5-min Rain = 0
KRLS 152100Z 01007KT 11/M02 A3018 RMK A01 T01101016  RH  042%=      5-min Rain = 0
KRLS 152105Z 01009G14KT 11/M02 A3018 RMK A01 T01111021  RH  040%=      5-min Rain = 0
KRLS 152110Z 02008KT 11/M01 A3018 RMK A01 T01131014  RH  042%=      5-min Rain = 0
KRLS 152115Z 01007KT 11/M02 A3018 RMK A01 T01111015  RH  042%=      5-min Rain = 0
KRLS 152120Z 00005G11KT 11/M01 A3017 RMK A01 T01121009  RH  044%=      5-min Rain = 0
KRLS 152125Z 00009KT 12/M01 A3017 RMK A01 T01151011  RH  042%=      5-min Rain = 0
KRLS 152130Z 00008KT 11/M02 A3017 RMK A01 T01131015  RH  042%=      5-min Rain = 0
KRLS 152135Z 00005G10KT 11/M01 A3017 RMK A01 T01121014  RH  042%=      5-min Rain = 0
KRLS 152140Z 35006KT 12/M01 A3017 RMK A01 T01171009  RH  042%=      5-min Rain = 0
KRLS 152145Z 01009KT 11/M01 A3017 RMK A01 T01141011  RH  042%=      5-min Rain = 0
KRLS 152150Z 00007G12KT 12/M01 A3017 RMK A01 T01161013  RH  041%=      5-min Rain = 0
KRLS 152155Z 36009KT 12/M02 A3016 RMK A01 T01161018  RH  040%=      5-min Rain = 0
KRLS 152200Z 00007KT 12/M02 A3016 RMK A01 T01171016  RH  040%=      5-min Rain = 0
KRLS 152205Z 01006KT 12/M02 A3016 RMK A01 T01161016  RH  040%=      5-min Rain = 0
KRLS 152210Z 00004KT 12/M01 A3016 RMK A01 T01171014  RH  041%=      5-min Rain = 0
KRLS 152215Z 00006G11KT 12/M02 A3016 RMK A01 T01161017  RH  040%=      5-min Rain = 0
KRLS 152220Z 35007G12KT 12/M01 A3015 RMK A01 T01171014  RH  040%=      5-min Rain = 0
KRLS 152225Z 35006KT 12/M02 A3015 RMK A01 T01191015  RH  040%=      5-min Rain = 0
KRLS 152230Z 01006KT 12/M02 A3015 RMK A01 T01161018  RH  040%=      5-min Rain = 0
KRLS 152235Z 02005KT 12/M01 A3015 RMK A01 T01161012  RH  041%=      5-min Rain = 0
KRLS 152240Z 01005KT 12/M01 A3015 RMK A01 T01171013  RH  041%=      5-min Rain = 0
KRLS 152245Z 00005KT 12/M02 A3015 RMK A01 T01151017  RH  040%=      5-min Rain = 0
KRLS 152250Z 02005KT 12/M01 A3015 RMK A01 T01171012  RH  041%=      5-min Rain = 0
KRLS 152255Z 02004KT 12/M01 A3015 RMK A01 T01161014  RH  041%=      5-min Rain = 0
KRLS 152300Z 03003KT 12/M02 A3015 RMK A01 T01161015  RH  040%=      5-min Rain = 0
KRLS 152305Z 04003KT 12/M02 A3015 RMK A01 T01151018  RH  040%=      5-min Rain = 0
KRLS 152310Z 32001G6KT 12/M02 A3014 RMK A01 T01191015  RH  040%=      5-min Rain = 0
KRLS 152315Z 26002KT 12/M02 A3014 RMK A01 T01211020  RH  038%=      5-min Rain = 0
KRLS 152320Z 34004KT 12/M02 A3014 RMK A01 T01201015  RH  039%=      5-min Rain = 0
KRLS 152325Z 34004KT 12/M02 A3015 RMK A01 T01171016  RH  040%=      5-min Rain = 0
KRLS 152330Z 35004KT 12/M02 A3015 RMK A01 T01161020  RH  039%=      5-min Rain = 0
KRLS 152335Z 00005KT 12/M02 A3014 RMK A01 T01151016  RH  041%=      5-min Rain = 0
KRLS 152340Z 01003KT 12/M02 A3014 RMK A01 T01151016  RH  041%=      5-min Rain = 0
KRLS 152345Z 34003KT 12/M02 A3014 RMK A01 T01151015  RH  041%=      5-min Rain = 0
KRLS 152350Z 27002KT 12/M02 A3014 RMK A01 T01171020  RH  039%=      5-min Rain = 0
KRLS 152355Z 28002KT 12/M02 A3014 RMK A01 T01191017  RH  039%=      5-min Rain = 0
KRLS 160000Z 29003KT 12/M02 A3014 RMK A01 T01161019  RH  040%=      5-min Rain = 0
KRLS 160005Z 29003KT 11/M02 A3014 RMK A01 T01131022  RH  039%=      5-min Rain = 0
KRLS 160010Z 29002KT 11/M02 A3014 RMK A01 T01131019  RH  040%=      5-min Rain = 0
KRLS 160015Z 27002KT 11/M02 A3014 RMK A01 T01111017  RH  041%=      5-min Rain = 0
KRLS 160020Z 26001KT 11/M01 A3013 RMK A01 T01121013  RH  042%=      5-min Rain = 0
KRLS 160025Z 26001KT 11/M01 A3013 RMK A01 T01081005  RH  046%=      5-min Rain = 0
KRLS 160030Z 24001KT 10/M01 A3013 RMK A01 T01001008  RH  048%=      5-min Rain = 0
KRLS 160035Z 22001KT 10/M02 A3013 RMK A01 T00981024  RH  043%=      5-min Rain = 0
KRLS 160040Z 19002KT 10/M02 A3013 RMK A01 T00991023  RH  043%=      5-min Rain = 0
KRLS 160045Z 18004KT 10/M01 A3013 RMK A01 T00961010  RH  048%=      5-min Rain = 0
KRLS 160050Z 17005KT 09/01 A3014 RMK A01 T00880008  RH  058%=      5-min Rain = 0
KRLS 160055Z 17005KT 09/02 A3014 RMK A01 T00850019  RH  064%=      5-min Rain = 0
KRLS 160100Z 18005KT 08/02 A3014 RMK A01 T00790020  RH  067%=      5-min Rain = 0
KRLS 160105Z 18006KT 07/01 A3014 RMK A01 T00690012  RH  068%=      5-min Rain = 0
KRLS 160110Z 18006KT 07/01 A3014 RMK A01 T00680006  RH  066%=      5-min Rain = 0
KRLS 160115Z 17005KT 06/01 A3014 RMK A01 T00610006  RH  069%=      5-min Rain = 0
KRLS 160120Z 17006KT 06/01 A3014 RMK A01 T00600011  RH  072%=      5-min Rain = 0
KRLS 160125Z 16005KT 07/02 A3014 RMK A01 T00670017  RH  071%=      5-min Rain = 0
KRLS 160130Z 16005KT 07/02 A3014 RMK A01 T00690018  RH  071%=      5-min Rain = 0
KRLS 160135Z 17005KT 07/02 A3014 RMK A01 T00660015  RH  071%=      5-min Rain = 0
KRLS 160140Z 17005KT 06/01 A3014 RMK A01 T00580013  RH  074%=      5-min Rain = 0
KRLS 160145Z 17004KT 06/02 A3014 RMK A01 T00550017  RH  078%=      5-min Rain = 0
KRLS 160150Z 17004KT 05/02 A3013 RMK A01 T00520017  RH  079%=      5-min Rain = 0
KRLS 160155Z 17004KT 05/02 A3013 RMK A01 T00520017  RH  079%=      5-min Rain = 0
KRLS 160200Z 18005KT 05/02 A3013 RMK A01 T00490017  RH  080%=      5-min Rain = 0
KRLS 160205Z 18006KT 05/01 A3014 RMK A01 T00460014  RH  080%=      5-min Rain = 0
KRLS 160210Z 18006KT 04/01 A3014 RMK A01 T00410010  RH  081%=      5-min Rain = 0
KRLS 160215Z 18008KT 04/01 A3014 RMK A01 T00410006  RH  079%=      5-min Rain = 0
KRLS 160220Z 18008KT 04/00 A3014 RMK A01 T00350001  RH  079%=      5-min Rain = 0
KRLS 160225Z 18008KT 04/01 A3014 RMK A01 T00430006  RH  078%=      5-min Rain = 0
KRLS 160230Z 19007KT 04/00 A3014 RMK A01 T00360000  RH  079%=      5-min Rain = 0
KRLS 160235Z 19007KT 04/00 A3014 RMK A01 T00380004  RH  079%=      5-min Rain = 0
KRLS 160240Z 19006KT 04/01 A3014 RMK A01 T00400005  RH  079%=      5-min Rain = 0
KRLS 160245Z 20006KT 03/M00 A3014 RMK A01 T00331002  RH  079%=      5-min Rain = 0
KRLS 160250Z 20007KT 03/M00 A3014 RMK A01 T00331001  RH  079%=      5-min Rain = 0
KRLS 160255Z 19007KT 04/00 A3014 RMK A01 T00380002  RH  078%=      5-min Rain = 0
KRLS 160300Z 19006KT 04/M00 A3014 RMK A01 T00401001  RH  076%=      5-min Rain = 0
KRLS 160305Z 19006KT 04/M00 A3014 RMK A01 T00361003  RH  077%=      5-min Rain = 0
KRLS 160310Z 19007KT 03/M00 A3014 RMK A01 T00341002  RH  078%=      5-min Rain = 0
KRLS 160315Z 19007KT 04/00 A3014 RMK A01 T00360001  RH  079%=      5-min Rain = 0
KRLS 160320Z 19006KT 03/M01 A3014 RMK A01 T00291005  RH  079%=      5-min Rain = 0
KRLS 160325Z 19007KT 03/M00 A3014 RMK A01 T00281003  RH  081%=      5-min Rain = 0
KRLS 160330Z 20007KT 03/M00 A3014 RMK A01 T00281002  RH  081%=      5-min Rain = 0
KRLS 160335Z 19007KT 03/M00 A3014 RMK A01 T00281002  RH  082%=      5-min Rain = 0
KRLS 160340Z 20007KT 03/M00 A3014 RMK A01 T00251004  RH  082%=      5-min Rain = 0
KRLS 160345Z 20007KT 03/M00 A3014 RMK A01 T00251003  RH  082%=      5-min Rain = 0
KRLS 160350Z 20007KT 03/M00 A3014 RMK A01 T00251003  RH  082%=      5-min Rain = 0
KRLS 160355Z 20007KT 03/M01 A3014 RMK A01 T00251005  RH  082%=      5-min Rain = 0
KRLS 160400Z 20007KT 03/M00 A3014 RMK A01 T00291004  RH  080%=      5-min Rain = 0
KRLS 160405Z 21008KT 03/M00 A3014 RMK A01 T00311002  RH  080%=      5-min Rain = 0
KRLS 160410Z 20008KT 04/M00 A3014 RMK A01 T00351001  RH  078%=      5-min Rain = 0
KRLS 160415Z 21007KT 04/M00 A3014 RMK A01 T00361003  RH  076%=      5-min Rain = 0
KRLS 160420Z 21007KT 04/M01 A3014 RMK A01 T00361005  RH  076%=      5-min Rain = 0
KRLS 160425Z 21006KT 03/M01 A3014 RMK A01 T00331006  RH  077%=      5-min Rain = 0
KRLS 160430Z 21005KT 03/M01 A3014 RMK A01 T00281009  RH  078%=      5-min Rain = 0
KRLS 160435Z 21006KT 03/M01 A3014 RMK A01 T00271007  RH  079%=      5-min Rain = 0
KRLS 160440Z 21007KT 03/M01 A3014 RMK A01 T00251011  RH  078%=      5-min Rain = 0
KRLS 160445Z 21007KT 02/M02 A3014 RMK A01 T00161016  RH  080%=      5-min Rain = 0
KRLS 160450Z 21007KT 02/M02 A3014 RMK A01 T00151016  RH  081%=      5-min Rain = 0
KRLS 160455Z 21006KT 01/M02 A3014 RMK A01 T00131017  RH  082%=      5-min Rain = 0
KRLS 160500Z 22006KT 01/M02 A3014 RMK A01 T00141015  RH  082%=      5-min Rain = 0
KRLS 160505Z 22006KT 01/M02 A3014 RMK A01 T00121017  RH  082%=      5-min Rain = 0
KRLS 160510Z 22006KT 01/M01 A3014 RMK A01 T00131014  RH  083%=      5-min Rain = 0
KRLS 160515Z 22006KT 02/M01 A3014 RMK A01 T00161013  RH  082%=      5-min Rain = 0
KRLS 160520Z 23005KT 02/M01 A3013 RMK A01 T00181013  RH  081%=      5-min Rain = 0
KRLS 160525Z 23006KT 02/M01 A3013 RMK A01 T00191012  RH  081%=      5-min Rain = 0
KRLS 160530Z 22006KT 03/M01 A3013 RMK A01 T00271005  RH  080%=      5-min Rain = 0
KRLS 160535Z 22006KT 03/M01 A3013 RMK A01 T00291006  RH  079%=      5-min Rain = 0
KRLS 160540Z 22005KT 03/M01 A3013 RMK A01 T00261007  RH  080%=      5-min Rain = 0
KRLS 160545Z 23005KT 02/M01 A3013 RMK A01 T00241007  RH  081%=      5-min Rain = 0
KRLS 160550Z 23005KT 02/M01 A3013 RMK A01 T00211009  RH  082%=      5-min Rain = 0
KRLS 160555Z 23006KT 02/M01 A3013 RMK A01 T00161012  RH  083%=      5-min Rain = 0

Page generated in 0.0268 seconds.